sensor_id;sensor_type;location;lat;lon;timestamp;temperature;humidity
41168;DHT22;26906;45.658;9.272;2022-07-30T04:33:38;21.20;99.90
41168;DHT22;26906;45.658;9.272;2022-07-30T04:36:14;21.50;99.90
41168;DHT22;26906;45.658;9.272;2022-07-30T04:38:40;21.60;99.90
41168;DHT22;26906;45.658;9.272;2022-07-30T04:41:06;21.50;99.90
41168;DHT22;26906;45.658;9.272;2022-07-30T04:43:52;21.60;99.90
41168;DHT22;26906;45.658;9.272;2022-07-30T04:46:19;21.50;99.90
41168;DHT22;26906;45.658;9.272;2022-07-30T04:48:45;21.50;99.90
41168;DHT22;26906;45.658;9.272;2022-07-30T04:51:25;21.50;99.90
41168;DHT22;26906;45.658;9.272;2022-07-30T04:53:52;21.40;99.90
41168;DHT22;26906;45.658;9.272;2022-07-30T04:56:20;21.50;99.90
41168;DHT22;26906;45.658;9.272;2022-07-30T04:58:48;21.60;99.90
41168;DHT22;26906;45.658;9.272;2022-07-30T05:01:19;21.80;99.90
41168;DHT22;26906;45.658;9.272;2022-07-30T05:03:46;22.10;99.90
41168;DHT22;26906;45.658;9.272;2022-07-30T05:06:14;22.10;99.90
41168;DHT22;26906;45.658;9.272;2022-07-30T05:08:41;22.20;99.90
41168;DHT22;26906;45.658;9.272;2022-07-30T05:11:13;22.50;99.90
41168;DHT22;26906;45.658;9.272;2022-07-30T05:13:42;22.70;99.90
41168;DHT22;26906;45.658;9.272;2022-07-30T05:16:11;22.60;99.90
41168;DHT22;26906;45.658;9.272;2022-07-30T05:18:37;22.80;99.90
41168;DHT22;26906;45.658;9.272;2022-07-30T05:21:03;23.10;99.90
41168;DHT22;26906;45.658;9.272;2022-07-30T05:23:43;23.40;99.90
41168;DHT22;26906;45.658;9.272;2022-07-30T05:26:20;23.50;99.90
41168;DHT22;26906;45.658;9.272;2022-07-30T05:28:48;23.70;99.90
41168;DHT22;26906;45.658;9.272;2022-07-30T05:31:15;23.80;99.90
41168;DHT22;26906;45.658;9.272;2022-07-30T05:33:45;24.00;99.90
41168;DHT22;26906;45.658;9.272;2022-07-30T05:36:19;24.20;99.90
41168;DHT22;26906;45.658;9.272;2022-07-30T05:38:45;24.40;99.90
41168;DHT22;26906;45.658;9.272;2022-07-30T05:41:30;24.60;99.90
41168;DHT22;26906;45.658;9.272;2022-07-30T05:44:30;24.80;99.90
41168;DHT22;26906;45.658;9.272;2022-07-30T05:46:56;25.00;99.90
41168;DHT22;26906;45.658;9.272;2022-07-30T05:49:22;25.10;99.90
41168;DHT22;26906;45.658;9.272;2022-07-30T05:51:49;25.40;99.90
41168;DHT22;26906;45.658;9.272;2022-07-30T05:54:15;25.50;99.90
41168;DHT22;26906;45.658;9.272;2022-07-30T05:56:41;25.60;99.90
41168;DHT22;26906;45.658;9.272;2022-07-30T05:59:32;25.60;99.90
41168;DHT22;26906;45.658;9.272;2022-07-30T06:02:08;25.70;99.90
41168;DHT22;26906;45.658;9.272;2022-07-30T06:04:49;25.80;99.90
41168;DHT22;26906;45.658;9.272;2022-07-30T06:07:16;26.10;99.90
41168;DHT22;26906;45.658;9.272;2022-07-30T06:09:42;26.40;99.90
41168;DHT22;26906;45.658;9.272;2022-07-30T06:12:10;26.60;99.90
41168;DHT22;26906;45.658;9.272;2022-07-30T06:14:39;26.60;99.90
41168;DHT22;26906;45.658;9.272;2022-07-30T06:17:06;26.50;99.90
41168;DHT22;26906;45.658;9.272;2022-07-30T06:19:59;26.50;99.90
41168;DHT22;26906;45.658;9.272;2022-07-30T06:22:25;26.40;99.90
41168;DHT22;26906;45.658;9.272;2022-07-30T06:24:52;26.30;99.90
41168;DHT22;26906;45.658;9.272;2022-07-30T06:27:22;26.30;99.90
41168;DHT22;26906;45.658;9.272;2022-07-30T06:29:49;26.40;99.90
41168;DHT22;26906;45.658;9.272;2022-07-30T06:32:15;26.80;99.90
41168;DHT22;26906;45.658;9.272;2022-07-30T06:34:42;27.00;99.90
41168;DHT22;26906;45.658;9.272;2022-07-30T06:37:07;27.10;99.90
41168;DHT22;26906;45.658;9.272;2022-07-30T06:39:34;27.30;99.90
41168;DHT22;26906;45.658;9.272;2022-07-30T06:42:18;27.50;99.90
41168;DHT22;26906;45.658;9.272;2022-07-30T06:45:18;27.70;99.90
41168;DHT22;26906;45.658;9.272;2022-07-30T06:48:02;28.00;99.90
41168;DHT22;26906;45.658;9.272;2022-07-30T06:50:31;28.00;99.90
41168;DHT22;26906;45.658;9.272;2022-07-30T06:52:56;28.00;99.90
41168;DHT22;26906;45.658;9.272;2022-07-30T06:55:26;28.00;99.90
41168;DHT22;26906;45.658;9.272;2022-07-30T06:57:57;28.10;99.90
41168;DHT22;26906;45.658;9.272;2022-07-30T07:00:45;28.20;99.90
41168;DHT22;26906;45.658;9.272;2022-07-30T07:03:12;28.20;99.90
41168;DHT22;26906;45.658;9.272;2022-07-30T07:05:40;28.20;99.90
41168;DHT22;26906;45.658;9.272;2022-07-30T07:08:05;28.30;99.90
41168;DHT22;26906;45.658;9.272;2022-07-30T07:10:36;28.20;99.90
41168;DHT22;26906;45.658;9.272;2022-07-30T07:13:10;28.40;99.90
41168;DHT22;26906;45.658;9.272;2022-07-30T07:15:36;28.50;99.90
41168;DHT22;26906;45.658;9.272;2022-07-30T07:18:02;28.60;99.90
41168;DHT22;26906;45.658;9.272;2022-07-30T07:20:35;28.60;99.90
41168;DHT22;26906;45.658;9.272;2022-07-30T07:23:04;28.70;99.90
41168;DHT22;26906;45.658;9.272;2022-07-30T07:25:30;28.70;99.90
41168;DHT22;26906;45.658;9.272;2022-07-30T07:27:56;28.90;99.90
41168;DHT22;26906;45.658;9.272;2022-07-30T07:30:22;29.00;99.90
41168;DHT22;26906;45.658;9.272;2022-07-30T07:32:49;29.10;99.90
41168;DHT22;26906;45.658;9.272;2022-07-30T07:35:15;29.30;99.90
41168;DHT22;26906;45.658;9.272;2022-07-30T07:37:47;29.20;99.90
41168;DHT22;26906;45.658;9.272;2022-07-30T07:40:26;29.30;99.90
41168;DHT22;26906;45.658;9.272;2022-07-30T07:42:52;29.40;99.90
41168;DHT22;26906;45.658;9.272;2022-07-30T07:45:18;29.30;99.90
41168;DHT22;26906;45.658;9.272;2022-07-30T07:47:50;29.20;99.90
41168;DHT22;26906;45.658;9.272;2022-07-30T07:50:31;29.10;99.90
41168;DHT22;26906;45.658;9.272;2022-07-30T07:52:57;29.30;99.90
41168;DHT22;26906;45.658;9.272;2022-07-30T07:55:25;29.30;99.90
41168;DHT22;26906;45.658;9.272;2022-07-30T07:57:51;29.20;99.90
41168;DHT22;26906;45.658;9.272;2022-07-30T08:00:19;29.30;99.90
41168;DHT22;26906;45.658;9.272;2022-07-30T08:02:46;29.40;99.90
41168;DHT22;26906;45.658;9.272;2022-07-30T08:05:15;29.40;99.90
41168;DHT22;26906;45.658;9.272;2022-07-30T08:07:58;29.40;99.90
41168;DHT22;26906;45.658;9.272;2022-07-30T08:10:36;29.60;99.90
41168;DHT22;26906;45.658;9.272;2022-07-30T08:13:40;29.70;99.90
41168;DHT22;26906;45.658;9.272;2022-07-30T08:16:24;29.70;99.90
41168;DHT22;26906;45.658;9.272;2022-07-30T08:19:08;29.90;99.90
41168;DHT22;26906;45.658;9.272;2022-07-30T08:21:39;30.20;99.90
41168;DHT22;26906;45.658;9.272;2022-07-30T08:24:06;30.30;99.90
41168;DHT22;26906;45.658;9.272;2022-07-30T08:26:32;30.00;99.90
41168;DHT22;26906;45.658;9.272;2022-07-30T08:28:58;30.30;99.90
41168;DHT22;26906;45.658;9.272;2022-07-30T08:31:23;30.60;99.90
41168;DHT22;26906;45.658;9.272;2022-07-30T08:33:49;30.30;99.90
41168;DHT22;26906;45.658;9.272;2022-07-30T08:36:15;30.50;99.90
41168;DHT22;26906;45.658;9.272;2022-07-30T08:38:41;30.40;99.90
41168;DHT22;26906;45.658;9.272;2022-07-30T08:41:07;30.30;99.90
41168;DHT22;26906;45.658;9.272;2022-07-30T08:43:38;30.50;99.90
41168;DHT22;26906;45.658;9.272;2022-07-30T08:46:10;30.50;99.90
41168;DHT22;26906;45.658;9.272;2022-07-30T08:48:57;30.30;99.90
41168;DHT22;26906;45.658;9.272;2022-07-30T08:51:23;30.70;99.90
41168;DHT22;26906;45.658;9.272;2022-07-30T08:54:08;31.00;99.90
41168;DHT22;26906;45.658;9.272;2022-07-30T08:56:36;31.10;99.90
41168;DHT22;26906;45.658;9.272;2022-07-30T08:59:05;31.00;99.90
41168;DHT22;26906;45.658;9.272;2022-07-30T09:01:31;31.10;99.90
41168;DHT22;26906;45.658;9.272;2022-07-30T09:03:57;31.60;99.90
41168;DHT22;26906;45.658;9.272;2022-07-30T09:06:25;31.60;99.90
41168;DHT22;26906;45.658;9.272;2022-07-30T09:08:51;31.40;99.90
41168;DHT22;26906;45.658;9.272;2022-07-30T09:11:20;31.50;99.90
41168;DHT22;26906;45.658;9.272;2022-07-30T09:13:46;31.70;99.90
41168;DHT22;26906;45.658;9.272;2022-07-30T09:16:24;31.70;99.90
41168;DHT22;26906;45.658;9.272;2022-07-30T09:18:53;31.40;99.90
41168;DHT22;26906;45.658;9.272;2022-07-30T09:21:25;31.40;99.90
41168;DHT22;26906;45.658;9.272;2022-07-30T09:24:18;31.40;99.90
41168;DHT22;26906;45.658;9.272;2022-07-30T09:27:04;32.00;99.90
41168;DHT22;26906;45.658;9.272;2022-07-30T09:29:36;32.00;99.90
41168;DHT22;26906;45.658;9.272;2022-07-30T09:32:20;32.00;99.90
41168;DHT22;26906;45.658;9.272;2022-07-30T09:35:11;31.70;99.90
41168;DHT22;26906;45.658;9.272;2022-07-30T09:37:58;31.90;99.90
41168;DHT22;26906;45.658;9.272;2022-07-30T09:40:52;32.10;99.90
41168;DHT22;26906;45.658;9.272;2022-07-30T09:44:02;31.20;99.90
41168;DHT22;26906;45.658;9.272;2022-07-30T09:46:54;31.20;99.90
41168;DHT22;26906;45.658;9.272;2022-07-30T09:49:26;31.70;99.90
41168;DHT22;26906;45.658;9.272;2022-07-30T09:51:56;32.00;99.90
41168;DHT22;26906;45.658;9.272;2022-07-30T09:54:43;32.40;99.90
41168;DHT22;26906;45.658;9.272;2022-07-30T09:57:09;32.70;99.90
41168;DHT22;26906;45.658;9.272;2022-07-30T09:59:36;32.30;99.90
41168;DHT22;26906;45.658;9.272;2022-07-30T10:02:04;32.50;99.90
41168;DHT22;26906;45.658;9.272;2022-07-30T10:05:12;32.60;99.90
41168;DHT22;26906;45.658;9.272;2022-07-30T10:07:38;32.60;99.90
41168;DHT22;26906;45.658;9.272;2022-07-30T10:10:13;32.60;99.90
41168;DHT22;26906;45.658;9.272;2022-07-30T10:13:01;32.60;99.90
41168;DHT22;26906;45.658;9.272;2022-07-30T10:15:30;32.90;99.90
41168;DHT22;26906;45.658;9.272;2022-07-30T10:17:58;33.10;99.90
41168;DHT22;26906;45.658;9.272;2022-07-30T10:21:00;32.70;99.90
41168;DHT22;26906;45.658;9.272;2022-07-30T10:23:46;32.60;99.90
41168;DHT22;26906;45.658;9.272;2022-07-30T10:26:34;32.70;99.90
41168;DHT22;26906;45.658;9.272;2022-07-30T10:29:20;33.00;99.80
41168;DHT22;26906;45.658;9.272;2022-07-30T10:31:48;32.80;99.50
41168;DHT22;26906;45.658;9.272;2022-07-30T10:34:15;33.00;99.90
41168;DHT22;26906;45.658;9.272;2022-07-30T10:36:54;33.30;99.90
41168;DHT22;26906;45.658;9.272;2022-07-30T10:39:44;33.60;99.90
41168;DHT22;26906;45.658;9.272;2022-07-30T10:47:49;33.60;99.40
41168;DHT22;26906;45.658;9.272;2022-07-30T10:50:20;33.80;99.90
41168;DHT22;26906;45.658;9.272;2022-07-30T10:52:54;33.70;98.80
41168;DHT22;26906;45.658;9.272;2022-07-30T10:55:31;33.00;99.00
41168;DHT22;26906;45.658;9.272;2022-07-30T10:58:05;32.70;99.00
41168;DHT22;26906;45.658;9.272;2022-07-30T11:00:35;32.80;99.90
41168;DHT22;26906;45.658;9.272;2022-07-30T11:03:28;33.20;99.90
41168;DHT22;26906;45.658;9.272;2022-07-30T11:08:41;33.70;99.50
41168;DHT22;26906;45.658;9.272;2022-07-30T11:13:57;34.30;97.60
41168;DHT22;26906;45.658;9.272;2022-07-30T11:19:17;34.50;96.20
41168;DHT22;26906;45.658;9.272;2022-07-30T11:24:42;34.50;95.30
41168;DHT22;26906;45.658;9.272;2022-07-30T11:27:09;34.20;94.80
41168;DHT22;26906;45.658;9.272;2022-07-30T11:35:38;34.90;93.70
41168;DHT22;26906;45.658;9.272;2022-07-30T11:38:02;35.30;93.70
41168;DHT22;26906;45.658;9.272;2022-07-30T11:40:35;35.20;92.20
41168;DHT22;26906;45.658;9.272;2022-07-30T11:43:30;35.40;93.10
41168;DHT22;26906;45.658;9.272;2022-07-30T11:48:30;35.40;90.70
41168;DHT22;26906;45.658;9.272;2022-07-30T11:50:56;35.40;90.80
41168;DHT22;26906;45.658;9.272;2022-07-30T11:53:28;35.20;90.40
41168;DHT22;26906;45.658;9.272;2022-07-30T11:55:58;35.50;90.60
41168;DHT22;26906;45.658;9.272;2022-07-30T11:58:36;35.80;90.20
41168;DHT22;26906;45.658;9.272;2022-07-30T12:01:19;35.80;89.60
41168;DHT22;26906;45.658;9.272;2022-07-30T12:03:45;35.80;88.50
41168;DHT22;26906;45.658;9.272;2022-07-30T12:06:13;35.70;88.40
41168;DHT22;26906;45.658;9.272;2022-07-30T12:08:49;35.80;88.60
41168;DHT22;26906;45.658;9.272;2022-07-30T12:11:15;35.60;89.10
41168;DHT22;26906;45.658;9.272;2022-07-30T12:13:42;35.80;89.00
41168;DHT22;26906;45.658;9.272;2022-07-30T12:16:13;36.00;90.10
41168;DHT22;26906;45.658;9.272;2022-07-30T12:18:40;36.00;88.80
41168;DHT22;26906;45.658;9.272;2022-07-30T12:21:08;36.00;87.80
41168;DHT22;26906;45.658;9.272;2022-07-30T12:23:37;36.00;90.00
41168;DHT22;26906;45.658;9.272;2022-07-30T12:26:03;36.30;89.70
41168;DHT22;26906;45.658;9.272;2022-07-30T12:28:33;36.50;88.50
41168;DHT22;26906;45.658;9.272;2022-07-30T12:31:00;36.50;87.20
41168;DHT22;26906;45.658;9.272;2022-07-30T12:33:29;36.30;85.70
41168;DHT22;26906;45.658;9.272;2022-07-30T12:35:58;36.20;86.30
41168;DHT22;26906;45.658;9.272;2022-07-30T12:38:26;36.30;86.10
41168;DHT22;26906;45.658;9.272;2022-07-30T12:46:10;36.80;84.00
41168;DHT22;26906;45.658;9.272;2022-07-30T12:48:36;36.90;83.90
41168;DHT22;26906;45.658;9.272;2022-07-30T12:51:08;37.10;83.70
41168;DHT22;26906;45.658;9.272;2022-07-30T12:53:38;36.90;82.80
41168;DHT22;26906;45.658;9.272;2022-07-30T12:56:21;37.00;80.40
41168;DHT22;26906;45.658;9.272;2022-07-30T12:58:48;37.10;79.90
41168;DHT22;26906;45.658;9.272;2022-07-30T13:01:13;37.10;78.40
41168;DHT22;26906;45.658;9.272;2022-07-30T13:03:39;37.30;79.10
41168;DHT22;26906;45.658;9.272;2022-07-30T13:06:13;37.30;77.80
41168;DHT22;26906;45.658;9.272;2022-07-30T13:08:55;37.30;81.90
41168;DHT22;26906;45.658;9.272;2022-07-30T13:11:26;37.50;81.80
41168;DHT22;26906;45.658;9.272;2022-07-30T13:14:04;37.50;81.60
41168;DHT22;26906;45.658;9.272;2022-07-30T13:16:31;37.40;79.90
41168;DHT22;26906;45.658;9.272;2022-07-30T13:18:57;37.40;80.10
41168;DHT22;26906;45.658;9.272;2022-07-30T13:21:23;37.30;79.60
41168;DHT22;26906;45.658;9.272;2022-07-30T13:23:49;36.90;78.30
41168;DHT22;26906;45.658;9.272;2022-07-30T13:26:15;36.80;79.30
41168;DHT22;26906;45.658;9.272;2022-07-30T13:28:42;36.20;76.70
41168;DHT22;26906;45.658;9.272;2022-07-30T13:31:11;35.90;75.80
41168;DHT22;26906;45.658;9.272;2022-07-30T13:33:38;36.00;78.00
41168;DHT22;26906;45.658;9.272;2022-07-30T13:36:05;36.40;76.80
41168;DHT22;26906;45.658;9.272;2022-07-30T13:38:32;36.40;77.70
41168;DHT22;26906;45.658;9.272;2022-07-30T13:40:58;35.60;77.80
41168;DHT22;26906;45.658;9.272;2022-07-30T13:43:24;35.30;79.20
41168;DHT22;26906;45.658;9.272;2022-07-30T13:45:50;35.50;78.60
41168;DHT22;26906;45.658;9.272;2022-07-30T13:48:18;35.70;79.30
41168;DHT22;26906;45.658;9.272;2022-07-30T13:50:44;36.00;77.50
41168;DHT22;26906;45.658;9.272;2022-07-30T13:53:10;36.40;73.00
41168;DHT22;26906;45.658;9.272;2022-07-30T13:55:37;36.50;72.20
41168;DHT22;26906;45.658;9.272;2022-07-30T13:58:04;36.40;71.90
41168;DHT22;26906;45.658;9.272;2022-07-30T14:00:31;36.50;72.20
41168;DHT22;26906;45.658;9.272;2022-07-30T14:03:02;36.80;73.20
41168;DHT22;26906;45.658;9.272;2022-07-30T14:05:27;37.20;71.40
41168;DHT22;26906;45.658;9.272;2022-07-30T14:07:53;37.40;73.30
41168;DHT22;26906;45.658;9.272;2022-07-30T14:10:23;37.30;73.00
41168;DHT22;26906;45.658;9.272;2022-07-30T14:12:49;37.40;72.20
41168;DHT22;26906;45.658;9.272;2022-07-30T14:15:16;37.40;71.10
41168;DHT22;26906;45.658;9.272;2022-07-30T14:17:41;37.60;73.40
41168;DHT22;26906;45.658;9.272;2022-07-30T14:20:07;37.70;71.90
41168;DHT22;26906;45.658;9.272;2022-07-30T14:22:33;37.70;72.00
41168;DHT22;26906;45.658;9.272;2022-07-30T14:24:59;37.70;70.20
41168;DHT22;26906;45.658;9.272;2022-07-30T14:27:25;37.30;70.20
41168;DHT22;26906;45.658;9.272;2022-07-30T14:29:50;37.30;67.60
41168;DHT22;26906;45.658;9.272;2022-07-30T14:32:16;37.50;68.60
41168;DHT22;26906;45.658;9.272;2022-07-30T14:34:44;37.60;67.50
41168;DHT22;26906;45.658;9.272;2022-07-30T14:37:10;37.70;67.60
41168;DHT22;26906;45.658;9.272;2022-07-30T14:39:36;37.50;66.20
41168;DHT22;26906;45.658;9.272;2022-07-30T14:42:07;37.40;67.10
41168;DHT22;26906;45.658;9.272;2022-07-30T14:44:33;37.20;66.10
41168;DHT22;26906;45.658;9.272;2022-07-30T14:46:59;37.50;68.70
41168;DHT22;26906;45.658;9.272;2022-07-30T14:49:25;37.40;67.30
41168;DHT22;26906;45.658;9.272;2022-07-30T14:51:51;37.40;67.00
41168;DHT22;26906;45.658;9.272;2022-07-30T14:54:18;37.40;65.70
41168;DHT22;26906;45.658;9.272;2022-07-30T14:56:43;37.30;66.30
41168;DHT22;26906;45.658;9.272;2022-07-30T14:59:09;37.30;65.80
41168;DHT22;26906;45.658;9.272;2022-07-30T15:01:35;37.30;65.80
41168;DHT22;26906;45.658;9.272;2022-07-30T15:04:01;37.30;65.50
41168;DHT22;26906;45.658;9.272;2022-07-30T15:06:27;37.40;66.60
41168;DHT22;26906;45.658;9.272;2022-07-30T15:08:53;37.40;66.50
41168;DHT22;26906;45.658;9.272;2022-07-30T15:11:19;37.40;66.80
41168;DHT22;26906;45.658;9.272;2022-07-30T15:13:45;37.30;64.30
41168;DHT22;26906;45.658;9.272;2022-07-30T15:16:12;37.20;64.50
41168;DHT22;26906;45.658;9.272;2022-07-30T15:18:41;37.20;64.70
41168;DHT22;26906;45.658;9.272;2022-07-30T15:21:09;37.10;64.90
41168;DHT22;26906;45.658;9.272;2022-07-30T15:23:35;36.90;64.60
41168;DHT22;26906;45.658;9.272;2022-07-30T15:26:00;36.90;65.60
41168;DHT22;26906;45.658;9.272;2022-07-30T15:28:26;37.00;65.30
41168;DHT22;26906;45.658;9.272;2022-07-30T15:30:53;36.60;65.20
41168;DHT22;26906;45.658;9.272;2022-07-30T15:33:21;36.50;65.70
41168;DHT22;26906;45.658;9.272;2022-07-30T15:35:46;36.50;65.00
41168;DHT22;26906;45.658;9.272;2022-07-30T15:38:12;36.50;64.20
41168;DHT22;26906;45.658;9.272;2022-07-30T15:40:38;36.50;63.10
41168;DHT22;26906;45.658;9.272;2022-07-30T15:43:06;36.60;62.50
41168;DHT22;26906;45.658;9.272;2022-07-30T15:45:35;36.00;63.20
41168;DHT22;26906;45.658;9.272;2022-07-30T15:48:00;35.40;63.20
41168;DHT22;26906;45.658;9.272;2022-07-30T15:50:29;35.50;64.40
41168;DHT22;26906;45.658;9.272;2022-07-30T15:52:55;35.50;63.90
41168;DHT22;26906;45.658;9.272;2022-07-30T15:55:22;35.60;64.90
41168;DHT22;26906;45.658;9.272;2022-07-30T15:57:51;35.60;64.20
41168;DHT22;26906;45.658;9.272;2022-07-30T16:00:17;35.60;64.80
41168;DHT22;26906;45.658;9.272;2022-07-30T16:02:43;35.60;63.60
41168;DHT22;26906;45.658;9.272;2022-07-30T16:05:10;35.50;64.00
41168;DHT22;26906;45.658;9.272;2022-07-30T16:07:36;34.90;63.90
41168;DHT22;26906;45.658;9.272;2022-07-30T16:10:03;35.00;64.40
41168;DHT22;26906;45.658;9.272;2022-07-30T16:12:31;35.10;64.50
41168;DHT22;26906;45.658;9.272;2022-07-30T16:14:59;35.00;64.80
41168;DHT22;26906;45.658;9.272;2022-07-30T16:17:24;35.00;65.10
41168;DHT22;26906;45.658;9.272;2022-07-30T16:19:50;35.00;65.00
41168;DHT22;26906;45.658;9.272;2022-07-30T16:22:17;35.10;65.50
41168;DHT22;26906;45.658;9.272;2022-07-30T16:24:43;35.20;63.60
41168;DHT22;26906;45.658;9.272;2022-07-30T16:27:09;35.10;64.60
41168;DHT22;26906;45.658;9.272;2022-07-30T16:29:35;35.00;64.00
41168;DHT22;26906;45.658;9.272;2022-07-30T16:32:00;34.90;64.30
41168;DHT22;26906;45.658;9.272;2022-07-30T16:34:26;35.00;65.30
41168;DHT22;26906;45.658;9.272;2022-07-30T16:36:52;34.80;64.20
41168;DHT22;26906;45.658;9.272;2022-07-30T16:39:18;34.80;65.00
41168;DHT22;26906;45.658;9.272;2022-07-30T16:41:43;34.90;65.00
41168;DHT22;26906;45.658;9.272;2022-07-30T16:44:09;34.80;65.50
41168;DHT22;26906;45.658;9.272;2022-07-30T16:46:35;34.90;66.10
41168;DHT22;26906;45.658;9.272;2022-07-30T16:49:03;34.80;65.80
41168;DHT22;26906;45.658;9.272;2022-07-30T16:51:30;34.40;65.30
41168;DHT22;26906;45.658;9.272;2022-07-30T16:53:56;34.40;66.00
41168;DHT22;26906;45.658;9.272;2022-07-30T16:56:22;34.30;65.50
41168;DHT22;26906;45.658;9.272;2022-07-30T16:58:48;34.20;64.20
41168;DHT22;26906;45.658;9.272;2022-07-30T17:01:13;34.10;65.70
41168;DHT22;26906;45.658;9.272;2022-07-30T17:03:39;33.90;64.80
41168;DHT22;26906;45.658;9.272;2022-07-30T17:06:05;33.80;64.70
41168;DHT22;26906;45.658;9.272;2022-07-30T17:08:31;34.00;64.70
41168;DHT22;26906;45.658;9.272;2022-07-30T17:10:56;34.00;65.30
41168;DHT22;26906;45.658;9.272;2022-07-30T17:13:22;33.90;64.90
41168;DHT22;26906;45.658;9.272;2022-07-30T17:15:48;33.90;65.80
41168;DHT22;26906;45.658;9.272;2022-07-30T17:18:20;33.80;65.80
41168;DHT22;26906;45.658;9.272;2022-07-30T17:20:45;33.70;65.50
41168;DHT22;26906;45.658;9.272;2022-07-30T17:23:14;33.40;65.40
41168;DHT22;26906;45.658;9.272;2022-07-30T17:25:40;33.40;65.60
41168;DHT22;26906;45.658;9.272;2022-07-30T17:28:09;33.40;65.90
41168;DHT22;26906;45.658;9.272;2022-07-30T17:30:34;33.50;65.90
41168;DHT22;26906;45.658;9.272;2022-07-30T17:33:03;33.40;65.40
41168;DHT22;26906;45.658;9.272;2022-07-30T17:35:31;33.20;65.70
41168;DHT22;26906;45.658;9.272;2022-07-30T17:37:57;33.30;66.70
41168;DHT22;26906;45.658;9.272;2022-07-30T17:40:23;33.40;65.90
41168;DHT22;26906;45.658;9.272;2022-07-30T17:42:48;33.40;66.80
41168;DHT22;26906;45.658;9.272;2022-07-30T17:45:17;33.30;66.00
41168;DHT22;26906;45.658;9.272;2022-07-30T17:47:43;33.20;65.70
41168;DHT22;26906;45.658;9.272;2022-07-30T17:50:09;33.00;66.60
41168;DHT22;26906;45.658;9.272;2022-07-30T17:52:36;32.80;65.90
41168;DHT22;26906;45.658;9.272;2022-07-30T17:55:04;32.50;65.70
41168;DHT22;26906;45.658;9.272;2022-07-30T17:57:30;32.30;65.60
41168;DHT22;26906;45.658;9.272;2022-07-30T17:59:56;32.20;66.40
41168;DHT22;26906;45.658;9.272;2022-07-30T18:02:22;32.10;66.40
41168;DHT22;26906;45.658;9.272;2022-07-30T18:04:50;32.10;66.50
41168;DHT22;26906;45.658;9.272;2022-07-30T18:07:17;32.00;66.20
41168;DHT22;26906;45.658;9.272;2022-07-30T18:09:42;32.00;66.90
41168;DHT22;26906;45.658;9.272;2022-07-30T18:12:09;32.00;66.80
41168;DHT22;26906;45.658;9.272;2022-07-30T18:14:35;31.80;66.40
41168;DHT22;26906;45.658;9.272;2022-07-30T18:17:01;31.80;66.30
41168;DHT22;26906;45.658;9.272;2022-07-30T18:19:28;31.80;66.70
41168;DHT22;26906;45.658;9.272;2022-07-30T18:21:53;31.70;67.00
41168;DHT22;26906;45.658;9.272;2022-07-30T18:24:19;31.60;66.70
41168;DHT22;26906;45.658;9.272;2022-07-30T18:26:45;31.50;66.50
41168;DHT22;26906;45.658;9.272;2022-07-30T18:29:11;31.40;67.10
41168;DHT22;26906;45.658;9.272;2022-07-30T18:31:37;31.30;66.90
41168;DHT22;26906;45.658;9.272;2022-07-30T18:34:03;31.20;67.30
41168;DHT22;26906;45.658;9.272;2022-07-30T18:36:28;31.00;66.90
41168;DHT22;26906;45.658;9.272;2022-07-30T18:38:54;30.90;67.40
41168;DHT22;26906;45.658;9.272;2022-07-30T18:41:20;30.70;67.30
41168;DHT22;26906;45.658;9.272;2022-07-30T18:43:46;30.60;67.50
41168;DHT22;26906;45.658;9.272;2022-07-30T18:46:11;30.50;68.00
41168;DHT22;26906;45.658;9.272;2022-07-30T18:48:37;30.50;68.20
41168;DHT22;26906;45.658;9.272;2022-07-30T18:51:04;30.50;68.50
41168;DHT22;26906;45.658;9.272;2022-07-30T18:53:30;30.40;68.70
41168;DHT22;26906;45.658;9.272;2022-07-30T18:55:58;30.30;69.20
41168;DHT22;26906;45.658;9.272;2022-07-30T18:58:27;30.10;69.60
41168;DHT22;26906;45.658;9.272;2022-07-30T19:00:54;30.00;69.80
41168;DHT22;26906;45.658;9.272;2022-07-30T19:03:20;29.90;69.50
41168;DHT22;26906;45.658;9.272;2022-07-30T19:05:46;29.80;69.80
41168;DHT22;26906;45.658;9.272;2022-07-30T19:08:12;29.80;69.80
41168;DHT22;26906;45.658;9.272;2022-07-30T19:10:38;29.70;69.70
41168;DHT22;26906;45.658;9.272;2022-07-30T19:13:04;29.60;69.40
41168;DHT22;26906;45.658;9.272;2022-07-30T19:15:30;29.50;69.70
41168;DHT22;26906;45.658;9.272;2022-07-30T19:17:57;29.50;70.40
41168;DHT22;26906;45.658;9.272;2022-07-30T19:20:25;29.50;70.30
41168;DHT22;26906;45.658;9.272;2022-07-30T19:23:02;29.40;71.10
41168;DHT22;26906;45.658;9.272;2022-07-30T19:25:29;29.40;70.90
41168;DHT22;26906;45.658;9.272;2022-07-30T19:27:56;29.20;70.80
41168;DHT22;26906;45.658;9.272;2022-07-30T19:30:22;29.30;70.90
41168;DHT22;26906;45.658;9.272;2022-07-30T19:32:48;29.40;70.80
41168;DHT22;26906;45.658;9.272;2022-07-30T19:35:15;29.20;70.60
41168;DHT22;26906;45.658;9.272;2022-07-30T19:37:41;29.20;71.00
41168;DHT22;26906;45.658;9.272;2022-07-30T19:40:07;29.20;70.90
41168;DHT22;26906;45.658;9.272;2022-07-30T19:42:33;29.20;71.30
41168;DHT22;26906;45.658;9.272;2022-07-30T19:44:58;29.20;71.20
41168;DHT22;26906;45.658;9.272;2022-07-30T19:47:24;29.20;71.10
41168;DHT22;26906;45.658;9.272;2022-07-30T19:49:53;29.10;71.50
41168;DHT22;26906;45.658;9.272;2022-07-30T19:52:20;29.10;71.60
41168;DHT22;26906;45.658;9.272;2022-07-30T19:54:48;29.00;72.20
41168;DHT22;26906;45.658;9.272;2022-07-30T19:57:14;29.00;71.70
41168;DHT22;26906;45.658;9.272;2022-07-30T19:59:40;29.00;71.30
41168;DHT22;26906;45.658;9.272;2022-07-30T20:02:05;29.10;71.50
41168;DHT22;26906;45.658;9.272;2022-07-30T20:04:31;29.00;71.60
41168;DHT22;26906;45.658;9.272;2022-07-30T20:06:57;29.00;71.70
41168;DHT22;26906;45.658;9.272;2022-07-30T20:09:23;29.00;72.00
41168;DHT22;26906;45.658;9.272;2022-07-30T20:11:49;28.80;72.00
41168;DHT22;26906;45.658;9.272;2022-07-30T20:14:14;28.90;71.90
41168;DHT22;26906;45.658;9.272;2022-07-30T20:16:40;28.90;72.30
41168;DHT22;26906;45.658;9.272;2022-07-30T20:19:06;28.80;71.80
41168;DHT22;26906;45.658;9.272;2022-07-30T20:21:32;28.70;72.20
41168;DHT22;26906;45.658;9.272;2022-07-30T20:23:58;28.70;72.00
41168;DHT22;26906;45.658;9.272;2022-07-30T20:26:24;28.70;71.50
41168;DHT22;26906;45.658;9.272;2022-07-30T20:28:50;28.70;71.10
41168;DHT22;26906;45.658;9.272;2022-07-30T20:31:17;28.70;70.60
41168;DHT22;26906;45.658;9.272;2022-07-30T20:33:43;28.70;70.80
41168;DHT22;26906;45.658;9.272;2022-07-30T20:36:09;28.80;70.30
41168;DHT22;26906;45.658;9.272;2022-07-30T20:38:36;28.90;70.60
41168;DHT22;26906;45.658;9.272;2022-07-30T20:41:02;28.90;70.50
41168;DHT22;26906;45.658;9.272;2022-07-30T20:43:28;28.90;70.70
41168;DHT22;26906;45.658;9.272;2022-07-30T20:45:55;28.90;70.60
41168;DHT22;26906;45.658;9.272;2022-07-30T20:48:21;29.00;70.30